Smyrna, North Carolina
Current Conditions -  °F | °C
As of 2:58 AM on Tuesday 21 Oct 2014 (Local Time) from KMRH Reporting Station
Broken Clouds Broken Clouds  
Wind Chill: 64°   Ceiling: 7500
Heat Index: 64°   Visibility: 10mi
Dew Point: 63°   Wind: 3mph
Humidity: 96%   Direction: 90°E
Pressure: 29.94"   Gusts: NA
Location:  34.76°N, 76.53°W
Report Text: KMRH 210658Z AUTO 09003KT 10SM FEW048 SCT060 BKN075 18/17 A2994 RMK AO2 RAB11E50 SLP138 P0001 T01780172 TSNO
Loading
Personal Weather Stations






























Interactive Weather Map
Tropical Storm Tracking
New forecast layout! Learn more

10-Day Weather Forecast

Advertisements
Track Severe Weather on mobile